Time;durP1;ratioP1;P1;durP2;ratioP2;P2;SDS_P1;SDS_P2;PMS_P1;PMS_P2;Temp;Humidity;BMP_temperature;BMP_pressure;BME280_temperature;BME280_humidity;BME280_pressure;Samples;Min_cycle;Max_cycle;Signal;HPM_P1;HPM_P2
2022/08/01 00:00:05;;;;;;;6.60;4.60;;;;;;;18.89;100.00;100627.20;107352;1282;63567;-85
2022/08/01 00:02:39;;;;;;;5.20;4.40;;;;;;;18.89;100.00;100625.59;107389;1282;60129;-85
2022/08/01 00:05:08;;;;;;;6.30;4.50;;;;;;;18.92;100.00;100624.34;107232;1284;75695;-86
2022/08/01 00:07:35;;;;;;;6.10;4.20;;;;;;;18.92;100.00;100625.69;107452;1281;69797;-85
2022/08/01 00:10:04;;;;;;;7.00;4.40;;;;;;;18.93;100.00;100623.20;107307;1281;72892;-86
2022/08/01 00:12:30;;;;;;;5.70;4.30;;;;;;;18.93;100.00;100624.83;107270;1282;62173;-86
2022/08/01 00:14:58;;;;;;;5.80;4.40;;;;;;;18.94;100.00;100625.48;107321;1282;60154;-84
2022/08/01 00:17:25;;;;;;;7.30;4.60;;;;;;;18.95;100.00;100625.29;107351;1282;73804;-86
2022/08/01 00:19:52;;;;;;;6.40;5.10;;;;;;;18.96;100.00;100625.80;107107;1282;71361;-85
2022/08/01 00:22:18;;;;;;;6.40;4.80;;;;;;;18.97;100.00;100627.44;107225;1281;74713;-86
2022/08/01 00:24:45;;;;;;;7.20;5.10;;;;;;;18.97;100.00;100623.60;107385;1282;62208;-85
2022/08/01 00:27:12;;;;;;;7.60;5.20;;;;;;;18.97;100.00;100620.83;107417;1281;60443;-86
2022/08/01 00:29:40;;;;;;;7.80;5.60;;;;;;;18.99;100.00;100622.48;107328;1282;75456;-86
2022/08/01 00:32:27;;;;;;;6.10;5.30;;;;;;;18.98;100.00;100620.14;107325;1282;73528;-86
2022/08/01 00:34:55;;;;;;;6.90;5.60;;;;;;;18.99;100.00;100620.76;107207;1282;73026;-86
2022/08/01 00:37:22;;;;;;;6.70;5.60;;;;;;;19.00;100.00;100617.98;107349;1282;61786;-87
2022/08/01 00:39:49;;;;;;;7.70;5.70;;;;;;;19.01;100.00;100618.54;107387;1282;61285;-86
2022/08/01 00:42:17;;;;;;;10.30;5.80;;;;;;;19.02;100.00;100618.56;107272;1282;76034;-86
2022/08/01 00:44:44;;;;;;;8.50;5.70;;;;;;;19.03;100.00;100618.90;107468;1282;72488;-86
2022/08/01 00:47:11;;;;;;;8.00;6.00;;;;;;;19.03;100.00;100619.40;107368;1281;75254;-87
2022/08/01 00:49:39;;;;;;;9.30;6.10;;;;;;;19.03;100.00;100619.66;107238;1282;63516;-87
2022/08/01 00:52:08;;;;;;;8.70;5.80;;;;;;;19.02;100.00;100617.06;107011;1284;61293;-88
2022/08/01 00:54:35;;;;;;;9.40;6.30;;;;;;;18.98;100.00;100615.52;107307;1282;76194;-88
2022/08/01 00:57:03;;;;;;;8.90;6.50;;;;;;;18.96;100.00;100612.57;107351;1283;71384;-87
2022/08/01 00:59:30;;;;;;;8.00;6.20;;;;;;;18.95;100.00;100613.24;107211;1284;72845;-87
2022/08/01 01:01:57;;;;;;;10.20;6.30;;;;;;;18.94;100.00;100611.56;107228;1284;62114;-88
2022/08/01 01:04:25;;;;;;;11.30;6.30;;;;;;;18.93;100.00;100607.40;107178;1284;60606;-87
2022/08/01 01:07:18;;;;;;;9.70;6.20;;;;;;;18.92;100.00;100605.27;107060;1284;74816;-87
2022/08/01 01:09:57;;;;;;;6.50;5.80;;;;;;;18.92;100.00;100606.44;107102;1284;71422;-85
2022/08/01 01:12:37;;;;;;;7.60;5.40;;;;;;;18.92;100.00;100607.21;107147;1284;73223;-86
2022/08/01 01:15:30;;;;;;;7.40;5.80;;;;;;;18.91;100.00;100608.14;107108;1284;61006;-87
2022/08/01 01:18:06;;;;;;;6.30;5.20;;;;;;;18.92;100.00;100606.23;107499;1284;61713;-87
2022/08/01 01:20:43;;;;;;;7.50;5.60;;;;;;;18.92;100.00;100605.70;107381;1283;74920;-86
2022/08/01 01:23:51;;;;;;;8.40;5.30;;;;;;;18.92;100.00;100605.39;107338;1284;71261;-87
2022/08/01 01:26:40;;;;;;;7.90;4.90;;;;;;;18.91;100.00;100604.34;107018;1284;73215;-86
2022/08/01 01:29:21;;;;;;;6.10;5.20;;;;;;;18.89;100.00;100602.19;106905;1284;62649;-88
2022/08/01 01:31:55;;;;;;;8.20;4.80;;;;;;;18.88;100.00;100601.25;107474;1283;61638;-87
2022/08/01 01:34:23;;;;;;;9.50;5.60;;;;;;;18.87;100.00;100607.48;107873;1282;74949;-87
2022/08/01 01:36:53;;;;;;;6.90;4.90;;;;;;;18.87;100.00;100605.48;107248;1284;71459;-86
2022/08/01 01:39:23;;;;;;;7.10;5.30;;;;;;;18.88;100.00;100611.09;107336;1284;73209;-87
2022/08/01 01:41:53;;;;;;;7.20;4.80;;;;;;;18.87;100.00;100610.16;107060;1282;61968;-87
2022/08/01 01:44:20;;;;;;;6.30;4.90;;;;;;;18.87;100.00;100614.66;107193;1284;60580;-84
2022/08/01 01:46:50;;;;;;;8.60;5.10;;;;;;;18.86;100.00;100611.95;107286;1283;75175;-85
2022/08/01 01:49:22;;;;;;;6.00;4.60;;;;;;;18.86;100.00;100610.55;107362;1283;72673;-85
2022/08/01 01:51:51;;;;;;;5.90;4.30;;;;;;;18.84;100.00;100612.38;106729;1284;74626;-85
2022/08/01 01:54:39;;;;;;;7.70;4.40;;;;;;;18.83;100.00;100613.05;107135;1284;64079;-84
2022/08/01 01:57:08;;;;;;;6.10;3.70;;;;;;;18.81;100.00;100619.85;107424;1284;59590;-87
2022/08/01 01:59:38;;;;;;;5.10;3.50;;;;;;;18.81;100.00;100620.80;106970;1284;74989;-86
2022/08/01 02:02:06;;;;;;;7.10;3.70;;;;;;;18.81;100.00;100618.33;107115;1284;72675;-85
2022/08/01 02:04:37;;;;;;;5.30;3.20;;;;;;;18.80;100.00;100621.81;107143;1284;72644;-85
2022/08/01 02:07:08;;;;;;;3.90;2.50;;;;;;;18.77;100.00;100623.27;107274;1283;63532;-84
2022/08/01 02:09:37;;;;;;;4.50;2.50;;;;;;;18.70;100.00;100619.77;107237;1284;60559;-83
2022/08/01 02:12:05;;;;;;;3.40;2.70;;;;;;;18.65;100.00;100616.89;107184;1284;75525;-83
2022/08/01 02:14:35;;;;;;;5.00;2.90;;;;;;;18.57;100.00;100619.85;107416;1282;70803;-84
2022/08/01 02:17:03;;;;;;;3.90;2.90;;;;;;;18.52;100.00;100616.34;107351;1283;73396;-83
2022/08/01 02:19:32;;;;;;;4.60;3.10;;;;;;;18.46;100.00;100619.48;107005;1284;62931;-83
2022/08/01 02:22:13;;;;;;;4.20;3.70;;;;;;;18.41;100.00;100620.04;107228;1282;60658;-84
2022/08/01 02:24:51;;;;;;;4.30;3.50;;;;;;;18.36;100.00;100617.96;107034;1284;75156;-84
2022/08/01 02:27:25;;;;;;;4.20;3.80;;;;;;;18.33;100.00;100622.30;107317;1284;71755;-82
2022/08/01 02:29:54;;;;;;;5.00;3.40;;;;;;;18.30;100.00;100626.14;107477;1283;73818;-83
2022/08/01 02:32:32;;;;;;;4.80;3.20;;;;;;;18.27;100.00;100626.17;107128;1284;62443;-83
2022/08/01 02:35:03;;;;;;;3.10;2.20;;;;;;;18.25;100.00;100628.31;106878;1284;61706;-83
2022/08/01 02:37:36;;;;;;;2.90;2.20;;;;;;;18.22;100.00;100627.05;107316;1282;75807;-84
2022/08/01 02:40:09;;;;;;;3.30;2.00;;;;;;;18.19;100.00;100622.66;107160;1283;71798;-83
2022/08/01 02:42:43;;;;;;;3.60;2.00;;;;;;;18.18;100.00;100633.05;107377;1284;72684;-83
2022/08/01 02:45:12;;;;;;;3.10;1.90;;;;;;;18.17;100.00;100629.52;107224;1284;62276;-84
2022/08/01 02:47:42;;;;;;;4.20;1.80;;;;;;;18.17;100.00;100627.40;107686;1283;60658;-84
2022/08/01 02:50:12;;;;;;;2.90;1.80;;;;;;;18.14;100.00;100640.31;107855;1283;75055;-83
2022/08/01 02:52:41;;;;;;;3.10;1.70;;;;;;;18.12;100.00;100640.67;107721;1284;71532;-85
2022/08/01 02:55:10;;;;;;;3.70;2.30;;;;;;;18.11;100.00;100637.96;107847;1283;72962;-84
2022/08/01 02:57:37;;;;;;;5.40;2.60;;;;;;;18.10;100.00;100635.37;107761;1282;62410;-84
2022/08/01 03:00:19;;;;;;;4.10;2.60;;;;;;;18.13;100.00;100643.07;107468;1284;61223;-84
2022/08/01 03:02:54;;;;;;;4.20;2.80;;;;;;;18.12;100.00;100648.70;107551;1282;75046;-84
2022/08/01 03:05:22;;;;;;;3.60;2.80;;;;;;;18.11;100.00;100646.56;107474;1282;70396;-83
2022/08/01 03:07:51;;;;;;;3.80;2.90;;;;;;;18.08;100.00;100648.58;107540;1282;73994;-84
2022/08/01 03:10:19;;;;;;;4.40;3.60;;;;;;;18.06;100.00;100644.27;107369;1283;63061;-83
2022/08/01 03:12:48;;;;;;;4.90;3.40;;;;;;;18.06;100.00;100645.71;107419;1282;61021;-83
2022/08/01 03:15:16;;;;;;;4.50;3.90;;;;;;;18.05;100.00;100649.19;107285;1282;74942;-83
2022/08/01 03:17:45;;;;;;;5.40;4.10;;;;;;;18.06;100.00;100647.50;107527;1282;74392;-83
2022/08/01 03:20:17;;;;;;;5.60;4.50;;;;;;;18.09;100.00;100647.04;107343;1282;73220;-83
2022/08/01 03:22:45;;;;;;;4.80;4.10;;;;;;;18.11;100.00;100652.38;107477;1281;61795;-84
2022/08/01 03:25:15;;;;;;;7.10;5.00;;;;;;;18.10;100.00;100652.67;107382;1282;60605;-84
2022/08/01 03:27:50;;;;;;;8.30;5.50;;;;;;;18.13;100.00;100651.77;107363;1282;75469;-84
2022/08/01 03:30:17;;;;;;;7.10;5.30;;;;;;;18.14;100.00;100653.54;107451;1281;72707;-85
2022/08/01 03:32:44;;;;;;;7.20;5.40;;;;;;;18.17;100.00;100653.55;107492;1282;71868;-84
2022/08/01 03:35:11;;;;;;;8.80;5.90;;;;;;;18.19;100.00;100656.46;107434;1282;62307;-84
2022/08/01 03:37:44;;;;;;;6.70;5.70;;;;;;;18.20;100.00;100659.54;107511;1282;60391;-84
2022/08/01 03:40:37;;;;;;;8.50;6.40;;;;;;;18.22;100.00;100664.25;107288;1282;76897;-85
2022/08/01 03:43:07;;;;;;;8.20;6.20;;;;;;;18.24;100.00;100665.98;107358;1282;72393;-84
2022/08/01 03:45:40;;;;;;;8.40;6.10;;;;;;;18.25;100.00;100670.52;107155;1281;74257;-85
2022/08/01 03:48:16;;;;;;;6.40;4.90;;;;;;;18.26;100.00;100672.42;107304;1282;62115;-85
2022/08/01 03:50:47;;;;;;;5.70;4.40;;;;;;;18.26;100.00;100671.69;107359;1282;60507;-86
2022/08/01 03:53:15;;;;;;;4.70;3.80;;;;;;;18.27;100.00;100673.04;107091;1281;74766;-86
2022/08/01 03:55:43;;;;;;;5.00;3.80;;;;;;;18.25;100.00;100672.46;107109;1284;71570;-85
2022/08/01 03:58:12;;;;;;;5.20;3.30;;;;;;;18.24;100.00;100677.74;107020;1284;74193;-85
2022/08/01 04:00:39;;;;;;;5.00;2.30;;;;;;;18.20;100.00;100678.12;106999;1283;62679;-85
2022/08/01 04:03:13;;;;;;;4.20;2.50;;;;;;;18.16;100.00;100678.77;106938;1284;60449;-87
2022/08/01 04:05:43;;;;;;;2.70;1.80;;;;;;;18.13;100.00;100674.50;107318;1283;76316;-87
2022/08/01 04:08:11;;;;;;;4.10;2.00;;;;;;;18.12;100.00;100680.35;107339;1283;71327;-86
2022/08/01 04:10:38;;;;;;;2.70;1.80;;;;;;;18.08;100.00;100690.17;107013;1284;72958;-87
2022/08/01 04:13:05;;;;;;;3.40;2.20;;;;;;;18.04;100.00;100688.77;107076;1283;61274;-86
2022/08/01 04:15:32;;;;;;;3.20;2.00;;;;;;;18.02;100.00;100691.50;107104;1284;60734;-86
2022/08/01 04:17:59;;;;;;;3.50;2.50;;;;;;;18.00;100.00;100692.54;106904;1284;75048;-87
2022/08/01 04:20:26;;;;;;;4.70;2.80;;;;;;;17.97;100.00;100693.89;107265;1283;71220;-85
2022/08/01 04:22:54;;;;;;;4.20;2.70;;;;;;;17.96;100.00;100698.46;107333;1282;72109;-87
2022/08/01 04:25:36;;;;;;;4.30;2.60;;;;;;;17.95;100.00;100699.68;107241;1283;63872;-87
2022/08/01 04:28:07;;;;;;;6.00;2.80;;;;;;;17.95;100.00;100701.84;107206;1283;60056;-86
2022/08/01 04:30:36;;;;;;;7.20;2.80;;;;;;;17.98;100.00;100704.16;107320;1284;75875;-87
2022/08/01 04:33:06;;;;;;;7.40;3.20;;;;;;;17.97;100.00;100708.05;107157;1284;71543;-87
2022/08/01 04:35:34;;;;;;;10.20;3.90;;;;;;;17.98;100.00;100708.02;107236;1282;74306;-87
2022/08/01 04:38:27;;;;;;;8.90;3.90;;;;;;;18.00;100.00;100706.86;107126;1284;63011;-86
2022/08/01 04:40:54;;;;;;;9.40;3.70;;;;;;;18.00;100.00;100716.39;107266;1283;61178;-86
2022/08/01 04:43:22;;;;;;;8.70;4.30;;;;;;;18.03;100.00;100719.34;107022;1284;76077;-87
2022/08/01 04:45:51;;;;;;;6.60;3.80;;;;;;;18.04;100.00;100718.84;107296;1283;72437;-86
2022/08/01 04:48:21;;;;;;;6.90;3.70;;;;;;;18.06;100.00;100722.40;107196;1283;75083;-85
2022/08/01 04:50:49;;;;;;;6.50;3.80;;;;;;;18.09;100.00;100723.23;107149;1283;61741;-85
2022/08/01 04:53:18;;;;;;;7.80;4.30;;;;;;;18.14;100.00;100722.80;106960;1283;61586;-85
2022/08/01 04:55:45;;;;;;;9.60;3.90;;;;;;;18.21;100.00;100727.55;107239;1282;74893;-85
2022/08/01 04:58:14;;;;;;;6.40;3.90;;;;;;;18.25;100.00;100732.00;107255;1282;71535;-86
2022/08/01 05:00:45;;;;;;;5.40;3.50;;;;;;;18.29;100.00;100732.05;107247;1283;73316;-86
2022/08/01 05:03:12;;;;;;;5.10;3.60;;;;;;;18.34;100.00;100731.73;107016;1282;62353;-85
2022/08/01 05:05:40;;;;;;;4.10;3.30;;;;;;;18.38;100.00;100732.30;107053;1284;61498;-85
2022/08/01 05:08:07;;;;;;;4.80;3.50;;;;;;;18.39;100.00;100740.09;107357;1282;74073;-85
2022/08/01 05:10:34;;;;;;;5.20;3.80;;;;;;;18.40;100.00;100734.80;107325;1281;72531;-86
2022/08/01 05:13:01;;;;;;;5.50;3.10;;;;;;;18.44;100.00;100738.07;107087;1282;73965;-85
2022/08/01 05:15:28;;;;;;;5.00;3.80;;;;;;;18.45;100.00;100742.72;107227;1282;62296;-84
2022/08/01 05:17:56;;;;;;;4.90;3.90;;;;;;;18.47;100.00;100738.77;107276;1282;61303;-85
2022/08/01 05:20:23;;;;;;;4.00;3.50;;;;;;;18.52;100.00;100740.19;107158;1282;75011;-86
2022/08/01 05:22:50;;;;;;;4.90;4.30;;;;;;;18.55;100.00;100750.52;107409;1282;72364;-84
2022/08/01 05:25:17;;;;;;;4.90;4.20;;;;;;;18.56;100.00;100747.39;107402;1282;72968;-85
2022/08/01 05:27:46;;;;;;;6.60;4.70;;;;;;;18.61;100.00;100749.71;107409;1282;63315;-85
2022/08/01 05:30:15;;;;;;;6.10;4.60;;;;;;;18.65;100.00;100753.70;107604;1283;60987;-84
2022/08/01 05:32:42;;;;;;;6.00;4.80;;;;;;;18.69;100.00;100757.15;107473;1282;75044;-84
2022/08/01 05:35:09;;;;;;;5.20;4.50;;;;;;;18.70;100.00;100752.40;107539;1282;71466;-85
2022/08/01 05:37:36;;;;;;;5.10;4.30;;;;;;;18.70;100.00;100750.36;107453;1282;73727;-82
2022/08/01 05:40:04;;;;;;;4.60;4.20;;;;;;;18.75;100.00;100751.02;107573;1283;62209;-86
2022/08/01 05:42:31;;;;;;;4.80;4.40;;;;;;;18.79;100.00;100754.91;107593;1282;59712;-84
2022/08/01 05:44:58;;;;;;;4.50;4.10;;;;;;;18.82;100.00;100756.65;107531;1282;74903;-85
2022/08/01 05:47:25;;;;;;;4.20;3.80;;;;;;;18.88;100.00;100755.70;107444;1283;71866;-84
2022/08/01 05:49:52;;;;;;;4.60;3.90;;;;;;;18.95;100.00;100753.24;107232;1283;72930;-84
2022/08/01 05:52:19;;;;;;;5.30;3.60;;;;;;;19.04;100.00;100752.45;107361;1282;61949;-85
2022/08/01 05:54:47;;;;;;;4.60;3.60;;;;;;;19.06;100.00;100752.35;107398;1283;60791;-84
2022/08/01 05:57:13;;;;;;;4.20;3.30;;;;;;;19.13;100.00;100754.98;107246;1283;75023;-84
2022/08/01 05:59:41;;;;;;;3.50;2.70;;;;;;;19.20;100.00;100757.09;107313;1283;70067;-85
2022/08/01 06:02:08;;;;;;;3.20;2.60;;;;;;;19.22;100.00;100759.51;107214;1282;75129;-83
2022/08/01 06:04:35;;;;;;;3.80;2.40;;;;;;;19.22;100.00;100765.50;107098;1283;62169;-84
2022/08/01 06:07:02;;;;;;;3.30;2.50;;;;;;;19.16;100.00;100762.23;107159;1282;60850;-83
2022/08/01 06:09:30;;;;;;;3.40;2.60;;;;;;;19.17;100.00;100764.45;107234;1284;76043;-85
2022/08/01 06:11:57;;;;;;;4.00;2.80;;;;;;;19.23;100.00;100769.16;107120;1283;72404;-83
2022/08/01 06:14:24;;;;;;;5.10;2.90;;;;;;;19.26;100.00;100773.59;106796;1282;73102;-84
2022/08/01 06:16:51;;;;;;;4.20;2.60;;;;;;;19.25;100.00;100771.25;107323;1283;60060;-83
2022/08/01 06:19:18;;;;;;;3.90;3.20;;;;;;;19.21;100.00;100774.33;107074;1284;61949;-84
2022/08/01 06:21:45;;;;;;;4.80;3.00;;;;;;;19.17;100.00;100782.62;107095;1282;76233;-84
2022/08/01 06:24:12;;;;;;;2.80;2.30;;;;;;;19.12;100.00;100786.04;107134;1282;73392;-86
2022/08/01 06:26:39;;;;;;;2.70;1.80;;;;;;;18.99;100.00;100789.42;107097;1283;73001;-84
2022/08/01 06:29:12;;;;;;;2.20;1.60;;;;;;;18.85;100.00;100795.77;107177;1284;62077;-84
2022/08/01 06:31:39;;;;;;;2.70;1.90;;;;;;;18.71;100.00;100797.98;107184;1283;61777;-86
2022/08/01 06:34:07;;;;;;;3.20;2.10;;;;;;;18.60;100.00;100798.54;107132;1284;75892;-81
2022/08/01 06:36:34;;;;;;;3.30;1.90;;;;;;;18.54;100.00;100805.14;107299;1283;72211;-81
2022/08/01 06:39:01;;;;;;;3.00;2.20;;;;;;;18.49;100.00;100809.08;107285;1282;73823;-81
2022/08/01 06:41:28;;;;;;;3.60;2.50;;;;;;;18.46;100.00;100811.39;107284;1282;62263;-81
2022/08/01 06:43:55;;;;;;;3.50;2.60;;;;;;;18.43;100.00;100814.08;106991;1284;61531;-81
2022/08/01 06:46:22;;;;;;;4.20;2.60;;;;;;;18.40;100.00;100813.64;107150;1283;74919;-81
2022/08/01 06:48:56;;;;;;;4.00;2.80;;;;;;;18.38;100.00;100811.80;107129;1282;71582;-82
2022/08/01 06:51:23;;;;;;;5.70;2.90;;;;;;;18.41;100.00;100814.27;107142;1284;72986;-80
2022/08/01 06:53:50;;;;;;;5.10;3.30;;;;;;;18.51;100.00;100808.48;107247;1284;61350;-82
2022/08/01 06:56:17;;;;;;;4.20;3.40;;;;;;;18.67;100.00;100812.02;107518;1282;60452;-82
2022/08/01 06:58:44;;;;;;;4.50;3.00;;;;;;;18.86;100.00;100807.73;107579;1282;75981;-80
2022/08/01 07:01:11;;;;;;;4.50;3.30;;;;;;;19.07;100.00;100810.92;107500;1284;70274;-81
2022/08/01 07:03:39;;;;;;;4.10;3.50;;;;;;;19.26;100.00;100809.47;107197;1282;73234;-80
2022/08/01 07:06:24;;;;;;;4.60;3.30;;;;;;;19.44;100.00;100808.65;107239;1284;62336;-81
2022/08/01 07:08:54;;;;;;;3.40;2.90;;;;;;;19.60;99.79;100810.33;107128;1284;60938;-80
2022/08/01 07:11:24;;;;;;;3.00;2.70;;;;;;;19.73;98.51;100809.81;107666;1283;74919;-80
2022/08/01 07:13:51;;;;;;;4.00;2.80;;;;;;;19.83;97.63;100808.92;107416;1282;71412;-80
2022/08/01 07:16:18;;;;;;;4.00;2.90;;;;;;;20.00;97.75;100806.48;107417;1282;73128;-80
2022/08/01 07:18:45;;;;;;;3.00;2.50;;;;;;;20.26;96.50;100806.85;107630;1282;63602;-80
2022/08/01 07:21:12;;;;;;;3.60;2.50;;;;;;;20.46;93.36;100807.81;107574;1282;60884;-80
2022/08/01 07:23:59;;;;;;;3.80;2.20;;;;;;;20.63;92.39;100809.05;107440;1282;77490;-80
2022/08/01 07:26:27;;;;;;;3.10;2.40;;;;;;;20.76;91.72;100812.45;107080;1283;71103;-82
2022/08/01 07:28:54;;;;;;;2.60;2.20;;;;;;;20.90;91.99;100812.66;107238;1282;72727;-81
2022/08/01 07:31:21;;;;;;;2.30;2.10;;;;;;;21.05;91.38;100816.92;107231;1283;63414;-81
2022/08/01 07:33:48;;;;;;;2.50;2.20;;;;;;;21.12;89.49;100811.98;107297;1282;60877;-81
2022/08/01 07:36:16;;;;;;;2.70;2.10;;;;;;;21.15;88.19;100815.66;107345;1282;75274;-81
2022/08/01 07:38:43;;;;;;;3.30;2.10;;;;;;;21.09;87.04;100819.92;107274;1282;72211;-81
2022/08/01 07:41:11;;;;;;;3.30;2.10;;;;;;;21.03;87.06;100820.39;107289;1282;74253;-81
2022/08/01 07:43:38;;;;;;;2.50;2.10;;;;;;;21.11;88.12;100827.29;107204;1283;62041;-81
2022/08/01 07:46:08;;;;;;;3.00;2.00;;;;;;;21.33;87.53;100826.60;107293;1282;60586;-79
2022/08/01 07:48:35;;;;;;;2.20;1.80;;;;;;;21.48;86.19;100827.82;107236;1282;73970;-80
2022/08/01 07:51:02;;;;;;;3.20;2.00;;;;;;;21.42;84.14;100830.92;107015;1282;71156;-80
2022/08/01 07:53:33;;;;;;;2.80;1.90;;;;;;;21.26;84.39;100831.38;106999;1283;72959;-80
2022/08/01 07:56:02;;;;;;;3.00;2.30;;;;;;;21.11;84.47;100833.42;107174;1281;61891;-80
2022/08/01 07:58:32;;;;;;;3.20;1.90;;;;;;;20.86;83.41;100843.16;107381;1282;61027;-80
2022/08/01 08:00:59;;;;;;;3.00;2.00;;;;;;;20.72;84.04;100844.23;107513;1281;75980;-80
2022/08/01 08:03:29;;;;;;;3.20;2.40;;;;;;;20.68;85.71;100843.41;107610;1282;72505;-81
2022/08/01 08:05:55;;;;;;;2.80;2.50;;;;;;;20.63;86.42;100841.14;107069;1281;73085;-80
2022/08/01 08:08:25;;;;;;;2.50;1.70;;;;;;;20.46;86.32;100858.31;107190;1283;63254;-80
2022/08/01 08:10:52;;;;;;;2.90;1.60;;;;;;;20.22;86.43;100854.41;107313;1281;61418;-80
2022/08/01 08:13:19;;;;;;;1.80;1.60;;;;;;;20.00;87.34;100865.33;107332;1282;75520;-80
2022/08/01 08:15:47;;;;;;;2.40;1.90;;;;;;;19.84;88.11;100867.95;107141;1282;71401;-80
2022/08/01 08:18:15;;;;;;;2.50;1.60;;;;;;;19.86;88.79;100866.80;107308;1281;74232;-81
2022/08/01 08:20:43;;;;;;;3.20;1.80;;;;;;;19.86;88.94;100869.99;107482;1281;62291;-81
2022/08/01 08:26:09;;;;;;;2.50;1.70;;;;;;;19.99;88.84;100869.33;107075;1283;76248;-81
2022/08/01 08:28:36;;;;;;;2.20;1.70;;;;;;;20.14;89.07;100863.39;107273;1281;70511;-80
2022/08/01 08:31:06;;;;;;;2.50;1.40;;;;;;;20.30;87.32;100867.13;107557;1281;73756;-81
2022/08/01 08:33:51;;;;;;;2.70;1.60;;;;;;;20.47;86.91;100861.88;107198;1282;62234;-80
2022/08/01 08:36:18;;;;;;;2.10;1.50;;;;;;;20.69;86.90;100870.98;107588;1280;60648;-81
2022/08/01 08:38:46;;;;;;;2.50;1.50;;;;;;;20.84;84.24;100874.50;107395;1281;76084;-81
2022/08/01 08:41:13;;;;;;;3.50;1.70;;;;;;;20.91;83.80;100875.09;107441;1281;72678;-81
2022/08/01 08:43:47;;;;;;;3.00;1.90;;;;;;;21.04;83.55;100877.93;107277;1279;72674;-81
2022/08/01 08:46:14;;;;;;;2.40;1.60;;;;;;;21.18;83.26;100879.80;107154;1281;62131;-81
2022/08/01 08:48:42;;;;;;;3.70;1.90;;;;;;;21.37;82.87;100880.42;107053;1281;59940;-81
2022/08/01 08:51:11;;;;;;;4.30;1.90;;;;;;;21.50;80.59;100883.80;107471;1281;76448;-81
2022/08/01 08:53:44;;;;;;;4.50;1.70;;;;;;;21.63;79.77;100883.92;107523;1281;73751;-81
2022/08/01 08:56:15;;;;;;;2.50;1.90;;;;;;;21.80;79.59;100884.10;107385;1282;73191;-81
2022/08/01 08:58:45;;;;;;;3.30;1.80;;;;;;;22.01;79.28;100883.26;107492;1281;62399;-81
2022/08/01 09:01:12;;;;;;;2.80;2.30;;;;;;;22.17;78.50;100888.48;107397;1282;60779;-81
2022/08/01 09:03:40;;;;;;;3.00;1.80;;;;;;;22.25;76.81;100887.10;106987;1282;75022;-81
2022/08/01 09:06:07;;;;;;;2.40;1.80;;;;;;;22.25;76.63;100893.37;107289;1281;72020;-82
2022/08/01 09:08:35;;;;;;;2.70;2.10;;;;;;;22.23;75.48;100893.13;107411;1282;74493;-81
2022/08/01 09:11:03;;;;;;;2.60;1.90;;;;;;;22.09;74.47;100896.88;107524;1281;62535;-82
2022/08/01 09:13:33;;;;;;;2.70;2.00;;;;;;;22.08;75.61;100900.48;107184;1281;61654;-82
2022/08/01 09:16:00;;;;;;;3.10;2.10;;;;;;;22.00;75.08;100907.83;107065;1282;75134;-81
2022/08/01 09:18:44;;;;;;;4.30;2.40;;;;;;;21.96;75.67;100905.43;107103;1281;71362;-81
2022/08/01 09:21:21;;;;;;;2.70;2.30;;;;;;;21.93;75.86;100910.36;107289;1282;73240;-83
2022/08/01 09:23:53;;;;;;;3.10;2.50;;;;;;;21.90;75.56;100914.25;107221;1282;61182;-80
2022/08/01 09:26:32;;;;;;;2.70;2.40;;;;;;;21.88;75.39;100919.95;106903;1282;61286;-80
2022/08/01 09:29:05;;;;;;;3.60;2.40;;;;;;;21.90;75.64;100921.87;107132;1281;74906;-83
2022/08/01 09:31:43;;;;;;;3.50;2.60;;;;;;;21.90;75.07;100921.49;107400;1282;72596;-80
2022/08/01 09:34:14;;;;;;;4.00;2.20;;;;;;;21.76;74.57;100929.31;107263;1281;71725;-80
2022/08/01 09:36:54;;;;;;;3.00;2.10;;;;;;;21.68;75.26;100933.91;107311;1282;63424;-80
2022/08/01 09:39:39;;;;;;;2.50;2.10;;;;;;;21.59;74.91;100938.88;107337;1281;61179;-82
2022/08/01 09:42:24;;;;;;;2.80;2.50;;;;;;;21.71;76.09;100935.36;107160;1282;75545;-80
2022/08/01 09:44:55;;;;;;;3.60;2.10;;;;;;;21.91;76.13;100939.50;106980;1282;73174;-80
2022/08/01 09:47:37;;;;;;;2.70;1.70;;;;;;;22.04;73.68;100951.10;107394;1281;73063;-80
2022/08/01 09:50:05;;;;;;;2.30;1.70;;;;;;;22.05;72.55;100954.14;107338;1281;63055;-80
2022/08/01 09:52:37;;;;;;;2.10;1.70;;;;;;;21.90;72.13;100961.14;107549;1281;61251;-81
2022/08/01 09:55:07;;;;;;;2.70;1.70;;;;;;;21.93;72.98;100955.89;107325;1281;75335;-82
2022/08/01 09:57:34;;;;;;;4.60;2.30;;;;;;;22.10;73.78;100954.83;106948;1281;71530;-81
2022/08/01 10:00:03;;;;;;;3.20;2.10;;;;;;;22.35;73.84;100961.30;107337;1282;74307;-81
2022/08/01 10:02:38;;;;;;;3.40;1.90;;;;;;;22.53;72.38;100963.35;107365;1280;63446;-81
2022/08/01 10:05:09;;;;;;;2.90;1.70;;;;;;;22.63;71.22;100963.66;107421;1281;60435;-80
2022/08/01 10:07:58;;;;;;;3.70;2.10;;;;;;;22.73;70.08;100963.80;107305;1282;75861;-81
2022/08/01 10:10:26;;;;;;;4.70;2.30;;;;;;;22.83;69.60;100961.72;107401;1281;70344;-81
2022/08/01 10:13:00;;;;;;;5.70;2.40;;;;;;;23.00;69.98;100964.06;107593;1281;72949;-81
2022/08/01 10:15:30;;;;;;;4.40;2.60;;;;;;;23.16;67.64;100963.02;107204;1281;62455;-81
2022/08/01 10:18:07;;;;;;;2.70;1.80;;;;;;;23.35;66.77;100960.22;107017;1284;61172;-81
2022/08/01 10:20:52;;;;;;;3.80;1.80;;;;;;;23.38;64.61;100962.64;107407;1281;76027;-81
2022/08/01 10:23:23;;;;;;;3.70;1.80;;;;;;;23.42;63.89;100958.23;107191;1283;71288;-81
2022/08/01 10:26:07;;;;;;;2.90;1.80;;;;;;;23.41;63.86;100962.73;107408;1281;73747;-81
2022/08/01 10:28:36;;;;;;;4.60;1.90;;;;;;;23.39;63.95;100963.73;107583;1282;63418;-81
2022/08/01 10:31:08;;;;;;;2.80;2.10;;;;;;;23.28;64.36;100961.33;107323;1284;60628;-81
2022/08/01 10:33:41;;;;;;;4.90;2.00;;;;;;;23.10;65.46;100964.52;107496;1281;74964;-81
2022/08/01 10:36:20;;;;;;;3.20;1.60;;;;;;;22.86;65.78;100964.95;107481;1281;71355;-80
2022/08/01 10:38:49;;;;;;;5.20;1.70;;;;;;;22.62;66.50;100968.48;107028;1282;73614;-81
2022/08/01 10:41:18;;;;;;;3.00;1.60;;;;;;;22.47;67.05;100969.27;107495;1282;62271;-81
2022/08/01 10:43:45;;;;;;;5.00;1.70;;;;;;;22.38;67.02;100974.11;107412;1281;61620;-81
2022/08/01 10:46:13;;;;;;;3.70;1.50;;;;;;;22.34;67.04;100977.52;107170;1284;76620;-81
2022/08/01 10:48:54;;;;;;;2.70;1.40;;;;;;;22.47;66.82;100975.00;107305;1282;71434;-79
2022/08/01 10:51:21;;;;;;;2.80;1.10;;;;;;;22.65;65.74;100974.56;107292;1281;74158;-80
2022/08/01 10:54:10;;;;;;;3.80;1.20;;;;;;;22.81;64.38;100969.48;107193;1282;64151;-81
2022/08/01 10:56:44;;;;;;;3.80;1.10;;;;;;;23.04;64.03;100966.14;107160;1282;60412;-82
2022/08/01 10:59:49;;;;;;;3.60;1.10;;;;;;;23.33;63.55;100960.52;107248;1282;75015;-82
2022/08/01 11:02:30;;;;;;;3.90;1.30;;;;;;;23.61;62.52;100962.27;107139;1281;664643;-81
2022/08/01 11:05:21;;;;;;;3.40;1.20;;;;;;;23.83;62.58;100958.12;107759;1282;72964;-83
2022/08/01 11:07:53;;;;;;;2.10;1.10;;;;;;;24.16;61.72;100958.95;107555;1281;62438;-83
2022/08/01 11:10:40;;;;;;;2.60;1.20;;;;;;;24.29;59.85;100962.80;107502;1281;60742;-82
2022/08/01 11:13:11;;;;;;;3.80;1.20;;;;;;;24.29;59.39;100961.21;107377;1281;74988;-83
2022/08/01 11:15:40;;;;;;;3.20;1.40;;;;;;;24.16;60.86;100964.33;107312;1281;71735;-82
2022/08/01 11:18:35;;;;;;;4.30;1.30;;;;;;;23.90;61.00;100966.16;107351;1281;73151;-82
2022/08/01 11:21:07;;;;;;;4.00;1.20;;;;;;;23.66;61.43;100967.64;107320;1282;60758;-82
2022/08/01 11:23:54;;;;;;;4.70;1.60;;;;;;;23.40;60.45;100971.16;107381;1281;60233;-82
2022/08/01 11:26:23;;;;;;;3.40;1.20;;;;;;;23.27;61.48;100977.17;107459;1282;74911;-82
2022/08/01 11:29:14;;;;;;;3.20;1.00;;;;;;;23.17;61.72;100980.75;106958;1284;72316;-83
2022/08/01 11:31:47;;;;;;;4.30;1.10;;;;;;;23.09;62.27;100978.96;107388;1282;72871;-83